This is the latest recevied weather packets stored in our database for station/object IZ7XUV. If no packets are shown the sender has not sent any weather packets the latest 10 day(s).
| Time | Temp. | Humidity | Pressure | Rain* | Wind** | Luminosity | Snow |
|---|---|---|---|---|---|---|---|
| 1777446670 | 17.78° C | 82% | 1016.5 hPa | 0 mm | - | 402 W/m² | - |
| 1777444840 | 18.33° C | 80% | 1016.6 hPa | 0 mm | - | 315 W/m² | - |
| 1777436422 | 12.78° C | 79% | 1016 hPa | 0 mm | - | 16 W/m² | - |
| 1777427456 | 13.89° C | 72% | 1015.6 hPa | 0 mm | - | 0 W/m² | - |
| 1777425626 | 13.33° C | 80% | 1015.5 hPa | 0 mm | - | 0 W/m² | - |
| 1777422637 | 14.44° C | 77% | 1015.7 hPa | 0 mm | - | 0 W/m² | - |
| 1777422026 | 14.44° C | 75% | 1015.7 hPa | 0 mm | - | 0 W/m² | - |
| 1777418428 | 15.56° C | 73% | 1016.2 hPa | 0 mm | - | 0 W/m² | - |
| 1777417838 | 16.11° C | 73% | 1016.2 hPa | 0 mm | - | 0 W/m² | - |
| 1777411230 | 18.33° C | 61% | 1016.2 hPa | 0 mm | - | 0 W/m² | - |
| 1777407021 | 15.56° C | 85% | 1016.2 hPa | 0 mm | - | 0 W/m² | - |
| 1777404662 | 16.67° C | 89% | 1016.1 hPa | 0 mm | - | 0 W/m² | - |
| 1777404032 | 16.67° C | 89% | 1016.2 hPa | 0 mm | - | 0 W/m² | - |
| 1777402263 | 17.78° C | 88% | 1015.8 hPa | 0 mm | - | 0 W/m² | - |
| 1777400432 | 18.33° C | 86% | 1015.7 hPa | 0 mm | - | 0 W/m² | - |
| 1777393844 | 19.44° C | 79% | 1015.2 hPa | 0 mm | - | 64 W/m² | - |
| 1777392624 | 19.44° C | 79% | 1015.3 hPa | 0 mm | - | 93 W/m² | - |
| 1777390245 | 19.44° C | 75% | 1015.3 hPa | 0 mm | - | 222 W/m² | - |
| 1777385426 | 20° C | 74% | 1015.6 hPa | 0 mm | - | 451 W/m² | - |
| 1777377070 | 20° C | 66% | 1016.6 hPa | 0 mm | - | 701 W/m² | - |
| 1777376460 | 20° C | 66% | 1016.6 hPa | 0 mm | - | 710 W/m² | - |
| 1777370420 | 19.44° C | 78% | 1017.3 hPa | 0 mm | - | 725 W/m² | - |
| 1777367451 | 18.89° C | 77% | 1017.3 hPa | 0 mm | - | 670 W/m² | - |
| 1777365052 | 19.44° C | 71% | 1017.4 hPa | 0 mm | - | 601 W/m² | - |
| 1777364462 | 19.44° C | 70% | 1017.4 hPa | 0 mm | - | 579 W/m² | - |
* Rain latest hour (hover to see other rain measurements)
** Current wind speed in m/s (hover to see current wind gust speed)